sensor_id;sensor_type;location;lat;lon;timestamp;P1;durP1;ratioP1;P2;durP2;ratioP2
23678;SDS011;12016;51.668;6.874;2022-08-14T00:03:57;3.83;;;3.38;;
23678;SDS011;12016;51.668;6.874;2022-08-14T00:10:00;4.15;;;3.83;;
23678;SDS011;12016;51.668;6.874;2022-08-14T00:16:06;5.60;;;4.00;;
23678;SDS011;12016;51.668;6.874;2022-08-14T00:22:08;5.03;;;4.20;;
23678;SDS011;12016;51.668;6.874;2022-08-14T00:28:14;4.47;;;4.07;;
23678;SDS011;12016;51.668;6.874;2022-08-14T00:34:19;5.10;;;4.05;;
23678;SDS011;12016;51.668;6.874;2022-08-14T00:40:21;5.03;;;3.92;;
23678;SDS011;12016;51.668;6.874;2022-08-14T00:46:23;5.97;;;4.28;;
23678;SDS011;12016;51.668;6.874;2022-08-14T00:52:25;4.47;;;4.07;;
23678;SDS011;12016;51.668;6.874;2022-08-14T00:58:30;4.82;;;3.90;;
23678;SDS011;12016;51.668;6.874;2022-08-14T01:04:32;4.53;;;4.07;;
23678;SDS011;12016;51.668;6.874;2022-08-14T01:10:36;4.55;;;4.03;;
23678;SDS011;12016;51.668;6.874;2022-08-14T01:16:52;6.88;;;4.35;;
23678;SDS011;12016;51.668;6.874;2022-08-14T01:22:54;4.47;;;4.07;;
23678;SDS011;12016;51.668;6.874;2022-08-14T01:29:02;5.28;;;4.78;;
23678;SDS011;12016;51.668;6.874;2022-08-14T01:35:05;5.40;;;4.50;;
23678;SDS011;12016;51.668;6.874;2022-08-14T01:41:10;5.07;;;4.57;;
23678;SDS011;12016;51.668;6.874;2022-08-14T01:47:13;5.22;;;4.72;;
23678;SDS011;12016;51.668;6.874;2022-08-14T01:53:16;6.25;;;4.93;;
23678;SDS011;12016;51.668;6.874;2022-08-14T01:59:22;5.47;;;5.00;;
23678;SDS011;12016;51.668;6.874;2022-08-14T02:05:32;5.43;;;4.93;;
23678;SDS011;12016;51.668;6.874;2022-08-14T02:11:35;5.03;;;4.63;;
23678;SDS011;12016;51.668;6.874;2022-08-14T02:17:37;5.68;;;5.07;;
23678;SDS011;12016;51.668;6.874;2022-08-14T02:23:39;5.18;;;4.78;;
23678;SDS011;12016;51.668;6.874;2022-08-14T02:29:41;5.80;;;5.15;;
23678;SDS011;12016;51.668;6.874;2022-08-14T02:35:44;5.32;;;4.82;;
23678;SDS011;12016;51.668;6.874;2022-08-14T02:41:47;5.78;;;5.22;;
23678;SDS011;12016;51.668;6.874;2022-08-14T02:47:53;8.73;;;5.50;;
23678;SDS011;12016;51.668;6.874;2022-08-14T02:53:55;8.15;;;5.82;;
23678;SDS011;12016;51.668;6.874;2022-08-14T02:59:58;6.70;;;5.57;;
23678;SDS011;12016;51.668;6.874;2022-08-14T03:06:01;7.43;;;5.60;;
23678;SDS011;12016;51.668;6.874;2022-08-14T03:12:09;6.72;;;5.68;;
23678;SDS011;12016;51.668;6.874;2022-08-14T03:18:11;7.32;;;5.50;;
23678;SDS011;12016;51.668;6.874;2022-08-14T03:24:14;6.15;;;5.65;;
23678;SDS011;12016;51.668;6.874;2022-08-14T03:30:18;6.65;;;5.80;;
23678;SDS011;12016;51.668;6.874;2022-08-14T03:36:20;6.75;;;6.07;;
23678;SDS011;12016;51.668;6.874;2022-08-14T03:42:23;7.10;;;6.38;;
23678;SDS011;12016;51.668;6.874;2022-08-14T03:48:25;6.80;;;6.10;;
23678;SDS011;12016;51.668;6.874;2022-08-14T03:54:28;6.68;;;5.97;;
23678;SDS011;12016;51.668;6.874;2022-08-14T04:00:29;8.43;;;6.28;;
23678;SDS011;12016;51.668;6.874;2022-08-14T04:06:34;7.25;;;6.38;;
23678;SDS011;12016;51.668;6.874;2022-08-14T04:12:37;7.22;;;6.47;;
23678;SDS011;12016;51.668;6.874;2022-08-14T04:18:40;8.02;;;6.63;;
23678;SDS011;12016;51.668;6.874;2022-08-14T04:24:43;6.72;;;6.03;;
23678;SDS011;12016;51.668;6.874;2022-08-14T04:30:46;6.63;;;5.85;;
23678;SDS011;12016;51.668;6.874;2022-08-14T04:36:49;7.43;;;6.72;;
23678;SDS011;12016;51.668;6.874;2022-08-14T04:43:10;8.18;;;7.30;;
23678;SDS011;12016;51.668;6.874;2022-08-14T04:49:30;7.47;;;6.78;;
23678;SDS011;12016;51.668;6.874;2022-08-14T04:55:33;7.35;;;6.63;;
23678;SDS011;12016;51.668;6.874;2022-08-14T05:01:35;7.78;;;6.90;;
23678;SDS011;12016;51.668;6.874;2022-08-14T05:07:37;7.55;;;6.70;;
23678;SDS011;12016;51.668;6.874;2022-08-14T05:13:40;7.43;;;6.72;;
23678;SDS011;12016;51.668;6.874;2022-08-14T05:20:04;9.18;;;6.80;;
23678;SDS011;12016;51.668;6.874;2022-08-14T05:26:09;7.68;;;6.90;;
23678;SDS011;12016;51.668;6.874;2022-08-14T05:32:18;7.80;;;7.00;;
23678;SDS011;12016;51.668;6.874;2022-08-14T05:38:20;7.90;;;7.13;;
23678;SDS011;12016;51.668;6.874;2022-08-14T05:44:23;8.05;;;7.20;;
23678;SDS011;12016;51.668;6.874;2022-08-14T05:50:28;8.30;;;7.38;;
23678;SDS011;12016;51.668;6.874;2022-08-14T05:56:30;9.32;;;7.57;;
23678;SDS011;12016;51.668;6.874;2022-08-14T06:02:32;8.95;;;8.07;;
23678;SDS011;12016;51.668;6.874;2022-08-14T06:08:34;7.63;;;6.85;;
23678;SDS011;12016;51.668;6.874;2022-08-14T06:14:37;7.97;;;6.85;;
23678;SDS011;12016;51.668;6.874;2022-08-14T06:20:39;8.45;;;7.45;;
23678;SDS011;12016;51.668;6.874;2022-08-14T06:26:42;7.95;;;7.18;;
23678;SDS011;12016;51.668;6.874;2022-08-14T06:32:44;8.27;;;6.90;;
23678;SDS011;12016;51.668;6.874;2022-08-14T06:38:47;7.50;;;6.80;;
23678;SDS011;12016;51.668;6.874;2022-08-14T06:44:51;7.80;;;7.10;;
23678;SDS011;12016;51.668;6.874;2022-08-14T06:50:54;7.78;;;6.97;;
23678;SDS011;12016;51.668;6.874;2022-08-14T06:56:56;7.70;;;6.90;;
23678;SDS011;12016;51.668;6.874;2022-08-14T07:02:58;9.48;;;6.97;;
23678;SDS011;12016;51.668;6.874;2022-08-14T07:09:19;6.95;;;6.18;;
23678;SDS011;12016;51.668;6.874;2022-08-14T07:15:22;6.90;;;6.30;;
23678;SDS011;12016;51.668;6.874;2022-08-14T07:21:24;7.72;;;6.00;;
23678;SDS011;12016;51.668;6.874;2022-08-14T07:27:26;13.18;;;7.00;;
23678;SDS011;12016;51.668;6.874;2022-08-14T07:33:29;7.55;;;6.85;;
23678;SDS011;12016;51.668;6.874;2022-08-14T07:39:34;9.93;;;8.90;;
23678;SDS011;12016;51.668;6.874;2022-08-14T07:45:36;7.28;;;6.57;;
23678;SDS011;12016;51.668;6.874;2022-08-14T07:51:37;6.65;;;6.05;;
23678;SDS011;12016;51.668;6.874;2022-08-14T07:57:43;6.80;;;6.20;;
23678;SDS011;12016;51.668;6.874;2022-08-14T08:03:46;7.72;;;6.10;;
23678;SDS011;12016;51.668;6.874;2022-08-14T08:09:52;6.45;;;5.85;;
23678;SDS011;12016;51.668;6.874;2022-08-14T08:15:57;6.38;;;5.78;;
23678;SDS011;12016;51.668;6.874;2022-08-14T08:21:59;6.38;;;5.78;;
23678;SDS011;12016;51.668;6.874;2022-08-14T08:28:17;6.95;;;5.72;;
23678;SDS011;12016;51.668;6.874;2022-08-14T08:40:31;7.43;;;5.28;;
23678;SDS011;12016;51.668;6.874;2022-08-14T08:46:38;5.57;;;4.95;;
23678;SDS011;12016;51.668;6.874;2022-08-14T08:52:48;6.10;;;5.10;;
23678;SDS011;12016;51.668;6.874;2022-08-14T08:58:52;8.07;;;7.28;;
23678;SDS011;12016;51.668;6.874;2022-08-14T09:05:00;6.15;;;5.35;;
23678;SDS011;12016;51.668;6.874;2022-08-14T09:11:04;5.38;;;4.70;;
23678;SDS011;12016;51.668;6.874;2022-08-14T09:17:10;5.57;;;5.07;;
23678;SDS011;12016;51.668;6.874;2022-08-14T09:23:12;5.45;;;4.95;;
23678;SDS011;12016;51.668;6.874;2022-08-14T09:29:15;7.22;;;4.60;;
23678;SDS011;12016;51.668;6.874;2022-08-14T09:48:16;4.60;;;4.20;;
23678;SDS011;12016;51.668;6.874;2022-08-14T09:54:20;4.97;;;4.40;;
23678;SDS011;12016;51.668;6.874;2022-08-14T10:00:32;4.72;;;4.32;;
23678;SDS011;12016;51.668;6.874;2022-08-14T10:06:42;4.50;;;4.10;;
23678;SDS011;12016;51.668;6.874;2022-08-14T10:12:48;4.78;;;4.18;;
23678;SDS011;12016;51.668;6.874;2022-08-14T10:25:37;4.18;;;3.78;;
23678;SDS011;12016;51.668;6.874;2022-08-14T10:31:41;5.63;;;4.57;;
23678;SDS011;12016;51.668;6.874;2022-08-14T10:37:46;3.95;;;3.65;;
23678;SDS011;12016;51.668;6.874;2022-08-14T10:44:03;4.00;;;3.70;;
23678;SDS011;12016;51.668;6.874;2022-08-14T10:50:08;4.40;;;4.00;;
23678;SDS011;12016;51.668;6.874;2022-08-14T10:56:11;5.07;;;3.85;;
23678;SDS011;12016;51.668;6.874;2022-08-14T11:02:16;4.25;;;3.85;;
23678;SDS011;12016;51.668;6.874;2022-08-14T11:08:29;4.10;;;3.70;;
23678;SDS011;12016;51.668;6.874;2022-08-14T11:14:35;4.15;;;3.75;;
23678;SDS011;12016;51.668;6.874;2022-08-14T11:20:37;3.65;;;3.35;;
23678;SDS011;12016;51.668;6.874;2022-08-14T11:26:41;5.40;;;3.53;;
23678;SDS011;12016;51.668;6.874;2022-08-14T11:32:46;4.47;;;2.80;;
23678;SDS011;12016;51.668;6.874;2022-08-14T11:38:49;3.47;;;2.17;;
23678;SDS011;12016;51.668;6.874;2022-08-14T11:44:55;2.03;;;1.83;;
23678;SDS011;12016;51.668;6.874;2022-08-14T11:50:59;2.83;;;1.85;;
23678;SDS011;12016;51.668;6.874;2022-08-14T11:57:01;1.90;;;1.50;;
23678;SDS011;12016;51.668;6.874;2022-08-14T12:03:05;2.00;;;1.30;;
23678;SDS011;12016;51.668;6.874;2022-08-14T12:09:07;2.05;;;1.13;;
23678;SDS011;12016;51.668;6.874;2022-08-14T12:15:09;2.47;;;1.30;;
23678;SDS011;12016;51.668;6.874;2022-08-14T12:21:22;1.98;;;1.33;;
23678;SDS011;12016;51.668;6.874;2022-08-14T12:33:37;1.20;;;1.10;;
23678;SDS011;12016;51.668;6.874;2022-08-14T12:39:38;1.98;;;1.60;;
23678;SDS011;12016;51.668;6.874;2022-08-14T12:45:44;2.05;;;0.98;;
23678;SDS011;12016;51.668;6.874;2022-08-14T12:51:57;1.23;;;1.10;;
23678;SDS011;12016;51.668;6.874;2022-08-14T12:58:02;1.58;;;1.10;;
23678;SDS011;12016;51.668;6.874;2022-08-14T13:04:13;1.00;;;1.00;;
23678;SDS011;12016;51.668;6.874;2022-08-14T13:10:18;1.05;;;0.80;;
23678;SDS011;12016;51.668;6.874;2022-08-14T13:16:21;1.25;;;0.85;;
23678;SDS011;12016;51.668;6.874;2022-08-14T13:22:25;1.02;;;0.70;;
23678;SDS011;12016;51.668;6.874;2022-08-14T13:28:31;0.80;;;0.80;;
23678;SDS011;12016;51.668;6.874;2022-08-14T13:34:37;0.90;;;0.90;;
23678;SDS011;12016;51.668;6.874;2022-08-14T13:40:42;0.70;;;0.70;;
23678;SDS011;12016;51.668;6.874;2022-08-14T13:46:43;1.35;;;0.82;;
23678;SDS011;12016;51.668;6.874;2022-08-14T13:58:56;2.05;;;1.58;;
23678;SDS011;12016;51.668;6.874;2022-08-14T14:05:02;1.90;;;1.80;;
23678;SDS011;12016;51.668;6.874;2022-08-14T14:11:05;2.28;;;2.00;;
23678;SDS011;12016;51.668;6.874;2022-08-14T14:17:09;2.33;;;2.20;;
23678;SDS011;12016;51.668;6.874;2022-08-14T14:23:14;2.70;;;2.50;;
23678;SDS011;12016;51.668;6.874;2022-08-14T14:29:17;2.97;;;2.60;;
23678;SDS011;12016;51.668;6.874;2022-08-14T14:35:19;3.00;;;2.80;;
23678;SDS011;12016;51.668;6.874;2022-08-14T14:41:22;3.85;;;2.78;;
23678;SDS011;12016;51.668;6.874;2022-08-14T14:47:26;3.10;;;2.90;;
23678;SDS011;12016;51.668;6.874;2022-08-14T14:53:33;2.50;;;2.30;;
23678;SDS011;12016;51.668;6.874;2022-08-14T14:59:35;2.63;;;2.42;;
23678;SDS011;12016;51.668;6.874;2022-08-14T15:05:38;3.72;;;2.53;;
23678;SDS011;12016;51.668;6.874;2022-08-14T15:11:40;3.13;;;2.75;;
23678;SDS011;12016;51.668;6.874;2022-08-14T15:17:42;3.03;;;2.65;;
23678;SDS011;12016;51.668;6.874;2022-08-14T15:23:45;2.80;;;2.60;;
23678;SDS011;12016;51.668;6.874;2022-08-14T15:29:51;2.95;;;2.75;;
23678;SDS011;12016;51.668;6.874;2022-08-14T15:35:53;3.70;;;2.90;;
23678;SDS011;12016;51.668;6.874;2022-08-14T15:41:55;6.72;;;3.22;;
23678;SDS011;12016;51.668;6.874;2022-08-14T15:48:00;3.67;;;3.08;;
23678;SDS011;12016;51.668;6.874;2022-08-14T15:54:02;3.20;;;3.00;;
23678;SDS011;12016;51.668;6.874;2022-08-14T16:00:05;3.30;;;2.85;;
23678;SDS011;12016;51.668;6.874;2022-08-14T16:06:27;4.88;;;2.97;;
23678;SDS011;12016;51.668;6.874;2022-08-14T16:12:35;5.28;;;3.20;;
23678;SDS011;12016;51.668;6.874;2022-08-14T16:18:37;3.47;;;3.17;;
23678;SDS011;12016;51.668;6.874;2022-08-14T16:24:41;3.78;;;3.20;;
23678;SDS011;12016;51.668;6.874;2022-08-14T16:30:45;3.65;;;3.00;;
23678;SDS011;12016;51.668;6.874;2022-08-14T16:36:53;4.80;;;3.40;;
23678;SDS011;12016;51.668;6.874;2022-08-14T16:42:57;3.20;;;2.90;;
23678;SDS011;12016;51.668;6.874;2022-08-14T16:49:02;3.75;;;3.15;;
23678;SDS011;12016;51.668;6.874;2022-08-14T17:01:19;3.50;;;3.20;;
23678;SDS011;12016;51.668;6.874;2022-08-14T17:07:24;3.30;;;3.00;;
23678;SDS011;12016;51.668;6.874;2022-08-14T17:13:27;3.50;;;3.20;;
23678;SDS011;12016;51.668;6.874;2022-08-14T17:19:35;3.33;;;3.08;;
23678;SDS011;12016;51.668;6.874;2022-08-14T17:25:40;3.95;;;3.55;;
23678;SDS011;12016;51.668;6.874;2022-08-14T17:31:44;4.43;;;3.10;;
23678;SDS011;12016;51.668;6.874;2022-08-14T17:37:51;3.20;;;2.90;;
23678;SDS011;12016;51.668;6.874;2022-08-14T17:44:07;5.85;;;3.28;;
23678;SDS011;12016;51.668;6.874;2022-08-14T17:50:15;5.70;;;3.20;;
23678;SDS011;12016;51.668;6.874;2022-08-14T17:56:18;3.17;;;2.88;;
23678;SDS011;12016;51.668;6.874;2022-08-14T18:02:23;3.40;;;3.10;;
23678;SDS011;12016;51.668;6.874;2022-08-14T18:08:28;3.33;;;3.08;;
23678;SDS011;12016;51.668;6.874;2022-08-14T18:14:31;5.95;;;3.33;;
23678;SDS011;12016;51.668;6.874;2022-08-14T18:20:34;4.03;;;3.38;;
23678;SDS011;12016;51.668;6.874;2022-08-14T18:26:39;4.00;;;3.40;;
23678;SDS011;12016;51.668;6.874;2022-08-14T18:32:44;5.32;;;3.67;;
23678;SDS011;12016;51.668;6.874;2022-08-14T18:38:48;4.00;;;3.40;;
23678;SDS011;12016;51.668;6.874;2022-08-14T18:45:26;3.65;;;3.30;;
23678;SDS011;12016;51.668;6.874;2022-08-14T18:51:40;3.90;;;3.50;;
23678;SDS011;12016;51.668;6.874;2022-08-14T19:03:59;4.75;;;3.70;;
23678;SDS011;12016;51.668;6.874;2022-08-14T19:10:03;3.75;;;3.20;;
23678;SDS011;12016;51.668;6.874;2022-08-14T19:22:18;5.93;;;3.78;;
23678;SDS011;12016;51.668;6.874;2022-08-14T19:34:52;4.60;;;3.42;;
23678;SDS011;12016;51.668;6.874;2022-08-14T19:40:54;5.50;;;3.50;;
23678;SDS011;12016;51.668;6.874;2022-08-14T19:46:58;6.18;;;3.90;;
23678;SDS011;12016;51.668;6.874;2022-08-14T19:53:04;4.85;;;3.63;;
23678;SDS011;12016;51.668;6.874;2022-08-14T19:59:16;6.32;;;3.55;;
23678;SDS011;12016;51.668;6.874;2022-08-14T20:05:19;4.00;;;3.50;;
23678;SDS011;12016;51.668;6.874;2022-08-14T20:11:46;7.32;;;3.58;;
23678;SDS011;12016;51.668;6.874;2022-08-14T20:17:50;5.30;;;3.83;;
23678;SDS011;12016;51.668;6.874;2022-08-14T20:24:54;5.32;;;3.80;;
23678;SDS011;12016;51.668;6.874;2022-08-14T20:30:28;7.22;;;6.53;;
23678;SDS011;12016;51.668;6.874;2022-08-14T20:36:31;5.38;;;4.40;;
23678;SDS011;12016;51.668;6.874;2022-08-14T20:42:38;4.15;;;3.75;;
23678;SDS011;12016;51.668;6.874;2022-08-14T20:49:09;4.80;;;3.60;;
23678;SDS011;12016;51.668;6.874;2022-08-14T20:55:33;4.22;;;3.90;;
23678;SDS011;12016;51.668;6.874;2022-08-14T21:08:31;4.00;;;3.70;;
23678;SDS011;12016;51.668;6.874;2022-08-14T21:14:33;3.85;;;3.55;;
23678;SDS011;12016;51.668;6.874;2022-08-14T21:20:35;3.97;;;3.67;;
23678;SDS011;12016;51.668;6.874;2022-08-14T21:26:41;4.05;;;3.53;;
23678;SDS011;12016;51.668;6.874;2022-08-14T21:32:44;3.70;;;3.40;;
23678;SDS011;12016;51.668;6.874;2022-08-14T21:38:46;4.72;;;3.22;;
23678;SDS011;12016;51.668;6.874;2022-08-14T21:44:50;5.40;;;3.38;;
23678;SDS011;12016;51.668;6.874;2022-08-14T21:50:54;2.95;;;2.75;;
23678;SDS011;12016;51.668;6.874;2022-08-14T21:57:03;3.95;;;3.15;;
23678;SDS011;12016;51.668;6.874;2022-08-14T22:03:12;3.60;;;3.30;;
23678;SDS011;12016;51.668;6.874;2022-08-14T22:09:19;4.28;;;3.00;;
23678;SDS011;12016;51.668;6.874;2022-08-14T22:15:24;3.55;;;3.28;;
23678;SDS011;12016;51.668;6.874;2022-08-14T22:21:26;4.30;;;3.20;;
23678;SDS011;12016;51.668;6.874;2022-08-14T22:27:28;3.10;;;2.85;;
23678;SDS011;12016;51.668;6.874;2022-08-14T22:33:32;3.45;;;3.15;;
23678;SDS011;12016;51.668;6.874;2022-08-14T22:39:34;3.95;;;3.10;;
23678;SDS011;12016;51.668;6.874;2022-08-14T22:45:36;3.67;;;3.00;;
23678;SDS011;12016;51.668;6.874;2022-08-14T22:51:39;3.53;;;3.20;;
23678;SDS011;12016;51.668;6.874;2022-08-14T22:57:42;3.85;;;3.47;;
23678;SDS011;12016;51.668;6.874;2022-08-14T23:03:43;3.63;;;3.33;;
23678;SDS011;12016;51.668;6.874;2022-08-14T23:09:46;3.42;;;3.13;;
23678;SDS011;12016;51.668;6.874;2022-08-14T23:15:50;3.70;;;3.40;;
23678;SDS011;12016;51.668;6.874;2022-08-14T23:21:52;3.65;;;3.28;;
23678;SDS011;12016;51.668;6.874;2022-08-14T23:27:55;3.78;;;3.42;;
23678;SDS011;12016;51.668;6.874;2022-08-14T23:33:57;3.58;;;3.25;;
23678;SDS011;12016;51.668;6.874;2022-08-14T23:39:59;3.83;;;3.53;;
23678;SDS011;12016;51.668;6.874;2022-08-14T23:46:02;3.95;;;3.53;;
23678;SDS011;12016;51.668;6.874;2022-08-14T23:52:04;3.80;;;3.50;;
23678;SDS011;12016;51.668;6.874;2022-08-14T23:58:06;4.20;;;3.83;;
